Detalii statie AGRICHIM STEFAN CEL MARE [0000198F]

Toti senzorii

Date Temperatura solului [C]Precipitatii [mm]Voltaj baterie [mV]HC Air temperature [C]HC Relative humidity [%]Punctul de roua [C]
medieminmaxsumaultimamedieminmaxmediemediemin
2019-02-21 00:00:00 4.7 4.7 5 0 6864 7.06 6.92 7.15 0 0 0
2019-02-21 01:00:00 4.7 4.7 4.9 0 6826 6.41 6.02 6.99 0 0 0
2019-02-21 02:00:00 4.7 4.6 4.9 0 6854 5.78 5.51 5.98 0 0 0
2019-02-21 03:00:00 4.7 4.6 4.8 0 6834 5.15 4.87 5.39 0 0 0
2019-02-21 04:00:00 4.7 4.6 4.8 0 6834 4.74 4.55 4.8 0 0 0
2019-02-21 05:00:00 4.6 4.5 4.7 0 6826 4.3 3.89 4.5 0 0 0
2019-02-21 06:00:00 4.6 4.5 4.7 0 6826 2.5 2.02 3.65 0 0 0
2019-02-21 07:00:00 4.4 4.4 4.6 0 6826 1.6 1.33 2.07 0 0 0
2019-02-21 08:00:00 4.3 4.3 4.5 0 6834 1.24 1.01 1.66 0 0 0
2019-02-21 09:00:00 4.2 4 4.5 0 6922 2.78 1.73 4 0 0 0
2019-02-21 10:00:00 4.1 4 4.3 0 7118 5.3 4.31 6.29 0 0 0
2019-02-21 11:00:00 4.1 4 4.2 0 7274 7.76 6.45 8.99 0 0 0
2019-02-21 12:00:00 4.1 3.9 4.3 0 7264 10.99 9.8 12.04 0 0 0
2019-02-21 13:00:00 4.2 4.2 4.5 0 7274 11.92 11.46 12.69 0 0 0
2019-02-21 14:00:00 4.5 4.4 4.7 0 7274 12.92 12.33 13.76 0 0 0
2019-02-21 15:00:00 4.8 4.6 5.2 0 7254 12.63 11.91 13.3 0 0 0
2019-02-21 16:00:00 5.2 5 5.5 0 7246 11.93 11.55 12.22 0 0 0
2019-02-21 17:00:00 5.4 5.2 5.5 0 7030 11.12 10.73 11.33 0 0 0
2019-02-21 18:00:00 5.5 5.3 5.6 0 6972 10.22 9.62 10.7 0 0 0
2019-02-21 19:00:00 5.5 5.4 5.7 0 6952 8.87 8.1 9.47 0 0 0
2019-02-21 20:00:00 5.5 5.3 5.6 0 6904 7.7 7.44 7.97 0 0 0
2019-02-21 21:00:00 5.5 5.4 5.6 0 6884 7.32 7.06 7.69 0 0 0
2019-02-21 22:00:00 5.4 5.3 5.5 0 6874 6 4.77 7.15 0 0 0
2019-02-21 23:00:00 5.3 5.1 5.6 0 6864 3.86 3.46 4.61 0 0 0
2019-02-22 00:00:00 5.2 5.1 5.5 0 6864 2.41 1.59 3.71 0 0 0
2019-02-22 01:00:00 5 4.9 5.2 0 6834 1.89 1.25 2.22 0 0 0
2019-02-22 02:00:00 4.8 4.7 5 0 6834 1.26 0.95 1.96 0 0 0
2019-02-22 03:00:00 4.6 4.5 4.8 0 6826 0.45 -0.08 0.87 0 0 0
2019-02-22 04:00:00 4.5 4.4 4.7 0 6826 0.23 -0.26 1.13 0 0 0
2019-02-22 05:00:00 4.4 4.3 4.5 0 6826 0.9 0.82 1.03 0 0 0
2019-02-22 06:00:00 4.2 4.1 4.4 0 6816 1 0.85 1.16 0 0 0
2019-02-22 07:00:00 4.2 4.2 4.3 0 6796 1.17 0.92 1.31 0 0 0
2019-02-22 08:00:00 4.1 4.1 4.2 0 6826 1.68 1.15 2.22 0 0 0
2019-02-22 09:00:00 4 3.9 4.1 0 6952 2.95 2.32 3.52 0 0 0
2019-02-22 10:00:00 4 3.9 4.1 0 7264 4.53 3.64 5.31 0 0 0
2019-02-22 11:00:00 4.1 4.1 4.2 0 7264 7.3 5.6 8.31 0 0 0
2019-02-22 12:00:00 4.2 4.2 4.5 0 7254 8.45 7.57 9.26 0 0 0
2019-02-22 13:00:00 4.4 4.3 4.6 0 7254 7.41 7.1 7.61 0 0 0
2019-02-22 14:00:00 4.7 4.6 4.8 0 7264 6.76 6.54 7.27 0 0 0
2019-02-22 15:00:00 4.8 4.8 4.9 0.2 7254 5.63 4.8 6.62 0 0 0
2019-02-22 16:00:00 4.9 4.9 5.1 0.6 7030 4.52 4.31 4.75 0 0 0
2019-02-22 17:00:00 5 5 5.1 1.2 6952 2.09 0.68 4.23 0 0 0
2019-02-22 18:00:00 4.9 4.8 5 0.2 6922 -0.07 -0.65 0.45 0 0 0
2019-02-22 19:00:00 4.7 4.6 5 0 6894 -1 -1.35 -0.63 0 0 0